createdAt,value
2023-03-17T00:01:51.632Z,80.10
2023-03-17T00:04:20.002Z,80.20
2023-03-17T00:06:48.117Z,81.00
2023-03-17T00:09:18.283Z,81.20
2023-03-17T00:11:46.812Z,80.80
2023-03-17T00:14:14.392Z,80.60
2023-03-17T00:16:44.658Z,81.20
2023-03-17T00:19:21.806Z,81.60
2023-03-17T00:21:50.116Z,81.40
2023-03-17T00:24:26.413Z,81.60
2023-03-17T00:26:59.854Z,81.80
2023-03-17T00:29:27.150Z,81.30
2023-03-17T00:31:57.126Z,82.70
2023-03-17T00:34:24.841Z,82.40
2023-03-17T00:36:52.312Z,82.60
2023-03-17T00:39:19.890Z,83.20
2023-03-17T00:41:49.984Z,83.30
2023-03-17T00:44:17.588Z,83.30
2023-03-17T00:46:48.059Z,83.30
2023-03-17T00:49:21.374Z,83.10
2023-03-17T00:51:49.936Z,82.90
2023-03-17T00:54:19.567Z,82.90
2023-03-17T00:56:48.532Z,82.80
2023-03-17T00:59:28.235Z,83.30
2023-03-17T01:01:56.344Z,83.20
2023-03-17T01:04:24.183Z,83.20
2023-03-17T01:06:53.140Z,83.50
2023-03-17T01:09:24.257Z,83.70
2023-03-17T01:11:51.629Z,83.30
2023-03-17T01:14:19.176Z,83.50
2023-03-17T01:16:47.890Z,83.50
2023-03-17T01:19:16.950Z,83.10
2023-03-17T01:21:44.547Z,83.40
2023-03-17T01:24:12.972Z,83.30
2023-03-17T01:26:40.627Z,83.80
2023-03-17T01:29:08.346Z,84.00
2023-03-17T01:31:36.442Z,83.90
2023-03-17T01:34:06.416Z,84.10
2023-03-17T01:36:34.551Z,84.00
2023-03-17T01:39:02.187Z,83.70
2023-03-17T01:41:37.716Z,83.30
2023-03-17T01:44:07.425Z,84.40
2023-03-17T01:46:37.848Z,84.70
2023-03-17T01:49:27.858Z,84.00
2023-03-17T01:52:07.668Z,84.30
2023-03-17T01:54:35.003Z,84.10
2023-03-17T01:57:18.756Z,84.60
2023-03-17T01:59:52.388Z,84.80
2023-03-17T02:02:24.956Z,84.50
2023-03-17T02:04:53.083Z,84.80
2023-03-17T02:07:22.309Z,84.60
2023-03-17T02:09:52.634Z,84.50
2023-03-17T02:12:22.795Z,84.70
2023-03-17T02:14:51.711Z,85.40
2023-03-17T02:17:20.315Z,84.70
2023-03-17T02:19:47.862Z,85.40
2023-03-17T02:22:17.061Z,85.60
2023-03-17T02:24:51.862Z,85.10
2023-03-17T02:27:25.569Z,84.70
2023-03-17T02:29:53.932Z,84.50
2023-03-17T02:32:21.366Z,84.90
2023-03-17T02:34:49.644Z,85.50
2023-03-17T02:37:18.315Z,85.20
2023-03-17T02:39:48.023Z,85.20
2023-03-17T02:42:15.328Z,85.70
2023-03-17T02:44:42.653Z,85.80
2023-03-17T02:47:09.944Z,85.80
2023-03-17T02:49:39.359Z,86.10
2023-03-17T02:52:07.435Z,85.50
2023-03-17T02:54:35.003Z,85.90
2023-03-17T02:57:02.379Z,86.10
2023-03-17T02:59:29.915Z,86.70
2023-03-17T03:01:57.379Z,86.20
2023-03-17T03:04:24.715Z,86.40
2023-03-17T03:06:52.600Z,86.50
2023-03-17T03:09:20.469Z,86.70
2023-03-17T03:11:48.201Z,86.60
2023-03-17T03:14:15.496Z,86.90
2023-03-17T03:16:43.612Z,86.60
2023-03-17T03:19:11.008Z,87.10
2023-03-17T03:21:38.538Z,86.30
2023-03-17T03:24:06.678Z,86.40
2023-03-17T03:26:33.971Z,86.10
2023-03-17T03:29:02.337Z,86.70
2023-03-17T03:31:29.739Z,87.00
2023-03-17T03:33:57.026Z,87.20
2023-03-17T03:36:25.477Z,87.00
2023-03-17T03:38:55.015Z,86.80
2023-03-17T03:41:25.255Z,86.50
2023-03-17T03:43:53.138Z,87.00
2023-03-17T03:46:20.500Z,86.30
2023-03-17T03:48:50.832Z,86.80
2023-03-17T03:51:18.206Z,87.60
2023-03-17T03:53:45.516Z,87.40
2023-03-17T03:56:12.881Z,87.30
2023-03-17T03:58:41.848Z,87.60
2023-03-17T04:01:10.148Z,88.40
2023-03-17T04:03:38.623Z,87.50
2023-03-17T04:06:06.566Z,87.00
2023-03-17T04:08:33.906Z,87.60
2023-03-17T04:11:01.266Z,88.00
2023-03-17T04:13:28.528Z,88.20
2023-03-17T04:15:56.654Z,88.70
2023-03-17T04:18:24.122Z,88.30
2023-03-17T04:20:51.478Z,88.40
2023-03-17T04:23:19.157Z,88.00
2023-03-17T04:25:47.190Z,88.40
2023-03-17T04:28:14.646Z,88.40
2023-03-17T04:30:42.154Z,89.60
2023-03-17T04:33:12.192Z,88.90
2023-03-17T04:35:43.014Z,88.50
2023-03-17T04:38:14.226Z,89.00
2023-03-17T04:40:41.766Z,88.50
2023-03-17T04:43:12.232Z,88.70
2023-03-17T04:45:39.628Z,88.60
2023-03-17T04:48:07.075Z,88.60
2023-03-17T04:50:34.559Z,89.50
2023-03-17T04:53:02.246Z,89.20
2023-03-17T04:55:29.607Z,89.40
2023-03-17T04:57:56.989Z,89.00
2023-03-17T05:00:24.323Z,88.70
2023-03-17T05:02:51.787Z,88.50
2023-03-17T05:05:19.129Z,89.00
2023-03-17T05:07:46.838Z,89.00
2023-03-17T05:10:16.370Z,89.40
2023-03-17T05:12:47.423Z,89.40
2023-03-17T05:15:48.762Z,89.90
2023-03-17T05:18:37.166Z,89.80
2023-03-17T05:21:09.022Z,89.90
2023-03-17T05:24:09.250Z,90.00
2023-03-17T05:26:42.266Z,89.90
2023-03-17T05:29:10.157Z,90.10
2023-03-17T05:31:37.709Z,90.70
2023-03-17T05:34:07.597Z,90.40
2023-03-17T05:36:37.059Z,90.50
2023-03-17T05:39:07.549Z,90.80
2023-03-17T05:41:35.027Z,90.70
2023-03-17T05:47:31.208Z,90.60
2023-03-17T05:50:06.921Z,90.80
2023-03-17T05:52:43.920Z,90.40
2023-03-17T05:55:48.042Z,90.20
2023-03-17T05:58:40.886Z,90.30
2023-03-17T06:02:00.069Z,90.50
2023-03-17T06:04:39.785Z,90.70
2023-03-17T06:13:38.845Z,88.90
2023-03-17T06:17:09.573Z,88.30
2023-03-17T06:19:51.665Z,87.60
2023-03-17T06:22:22.841Z,86.90
2023-03-17T06:25:12.223Z,86.30
2023-03-17T06:27:45.268Z,86.00
2023-03-17T06:30:13.853Z,85.50
2023-03-17T06:32:53.781Z,84.60
2023-03-17T06:35:31.359Z,83.90
2023-03-17T06:38:01.536Z,83.20
2023-03-17T06:40:47.412Z,83.00
2023-03-17T06:44:13.500Z,81.90
2023-03-17T06:51:14.025Z,82.20
2023-03-17T07:23:56.536Z,77.70
2023-03-17T07:29:41.874Z,76.30
2023-03-17T07:36:13.361Z,74.50
2023-03-17T08:26:52.399Z,64.90
2023-03-17T08:32:24.102Z,62.80
2023-03-17T08:35:37.512Z,62.40
2023-03-17T08:38:09.172Z,62.50
2023-03-17T08:41:13.506Z,62.30
2023-03-17T08:43:46.488Z,60.20
2023-03-17T08:49:57.168Z,58.70
2023-03-17T08:55:53.766Z,58.40
2023-03-17T08:58:32.100Z,59.40
2023-03-17T09:01:05.319Z,59.40
2023-03-17T09:09:40.737Z,56.50
2023-03-17T09:23:36.661Z,52.40
2023-03-17T09:26:06.763Z,54.00
2023-03-17T09:38:01.483Z,51.90
2023-03-17T09:41:20.561Z,53.20
2023-03-17T09:47:38.776Z,50.70
2023-03-17T09:56:57.032Z,52.80
2023-03-17T09:59:37.199Z,54.20
2023-03-17T10:05:35.269Z,54.20
2023-03-17T10:19:21.259Z,51.50
2023-03-17T10:38:22.800Z,53.60
2023-03-17T10:41:13.587Z,52.50
2023-03-17T11:20:44.209Z,50.00
2023-03-17T11:32:42.753Z,49.30
2023-03-17T12:06:56.129Z,48.40
2023-03-17T12:09:35.976Z,47.10
2023-03-17T12:12:18.209Z,46.90
2023-03-17T12:54:54.404Z,45.90
2023-03-17T12:57:32.710Z,47.90
2023-03-17T13:00:10.301Z,48.10
2023-03-17T13:10:14.619Z,47.90
2023-03-17T13:38:00.987Z,49.50
2023-03-17T13:47:27.382Z,50.70
2023-03-17T13:50:18.252Z,48.60
2023-03-17T14:09:34.482Z,47.10
2023-03-17T14:12:12.708Z,47.60
2023-03-17T14:18:15.742Z,46.70
2023-03-17T14:26:50.410Z,47.90
2023-03-17T14:29:22.447Z,46.60
2023-03-17T14:42:05.503Z,47.30
2023-03-17T14:48:05.867Z,45.90
2023-03-17T15:20:49.014Z,49.60
2023-03-17T15:27:16.544Z,49.40
2023-03-17T15:29:44.739Z,49.40
2023-03-17T15:46:58.847Z,49.30
2023-03-17T15:59:58.484Z,51.50
2023-03-17T17:47:42.583Z,59.70
2023-03-17T19:14:00.212Z,63.00
2023-03-17T19:16:29.707Z,63.00
2023-03-17T19:19:05.413Z,63.30
2023-03-17T19:21:44.209Z,63.20
2023-03-17T19:24:21.303Z,63.50
2023-03-17T19:26:53.961Z,64.20
2023-03-17T19:29:29.117Z,64.30
2023-03-17T19:32:18.283Z,64.60
2023-03-17T19:34:49.085Z,65.10
2023-03-17T19:37:31.634Z,65.30
2023-03-17T19:40:33.096Z,65.30
2023-03-17T19:43:53.516Z,65.20
2023-03-17T19:46:29.918Z,65.00
2023-03-17T19:49:13.165Z,65.20
2023-03-17T19:52:06.620Z,65.30
2023-03-17T19:54:39.021Z,66.20
2023-03-17T19:57:15.729Z,65.70
2023-03-17T19:59:58.288Z,66.10
2023-03-17T20:02:57.788Z,66.20
2023-03-17T20:05:43.802Z,66.50
